Time;durP1;ratioP1;P1;durP2;ratioP2;P2;SDS_P1;SDS_P2;PMS_P1;PMS_P2;Temp;Humidity;BMP_temperature;BMP_pressure;BME280_temperature;BME280_humidity;BME280_pressure;Samples;Min_cycle;Max_cycle;Signal;HPM_P1;HPM_P2
2023/07/14 00:02:04;;;;;;;2.00;1.60;;;;;;;;;;5047212;28;20041;-69
2023/07/14 00:04:33;;;;;;;2.00;1.50;;;;;;;;;;5045604;28;20509;-69
2023/07/14 00:06:58;;;;;;;1.55;1.35;;;;;;;;;;5041967;28;20029;-69
2023/07/14 00:09:26;;;;;;;3.20;1.35;;;;;;;;;;5032124;28;20030;-69
2023/07/14 00:11:52;;;;;;;1.42;1.13;;;;;;;;;;5052315;28;20496;-69
2023/07/14 00:14:17;;;;;;;2.10;1.52;;;;;;;;;;5052041;28;20108;-69
2023/07/14 00:16:44;;;;;;;1.85;1.48;;;;;;;;;;5051433;28;20390;-69
2023/07/14 00:19:15;;;;;;;1.52;1.23;;;;;;;;;;5034518;28;20025;-69
2023/07/14 00:21:41;;;;;;;;;;;;;;;;;;5052823;28;20052;-69
2023/07/14 00:24:17;;;;;;;2.97;1.30;;;;;;;;;;5033964;28;20358;-69
2023/07/14 00:26:47;;;;;;;2.22;1.20;;;;;;;;;;5052777;28;20501;-69
2023/07/14 00:29:31;;;;;;;3.58;1.50;;;;;;;;;;5036685;28;20021;-69
2023/07/14 00:31:57;;;;;;;2.10;1.65;;;;;;;;;;5054779;28;20017;-69
2023/07/14 00:34:23;;;;;;;3.45;1.73;;;;;;;;;;5054932;28;20557;-69
2023/07/14 00:36:48;;;;;;;2.30;1.77;;;;;;;;;;5056040;28;20091;-69
2023/07/14 00:39:13;;;;;;;2.42;2.22;;;;;;;;;;5055628;28;20473;-69
2023/07/14 00:41:39;;;;;;;2.05;1.52;;;;;;;;;;5038211;28;20099;-69
2023/07/14 00:44:04;;;;;;;3.25;2.33;;;;;;;;;;5055791;28;20386;-69
2023/07/14 00:46:30;;;;;;;2.33;1.80;;;;;;;;;;5037671;28;20393;-69
2023/07/14 00:49:00;;;;;;;2.17;1.63;;;;;;;;;;5037169;28;20033;-69
2023/07/14 00:51:28;;;;;;;1.63;1.40;;;;;;;;;;5037868;28;20028;-69
2023/07/14 00:53:53;;;;;;;2.45;1.73;;;;;;;;;;5055221;28;20025;-69
2023/07/14 00:56:36;;;;;;;2.33;1.80;;;;;;;;;;5054936;28;20057;-69
2023/07/14 00:59:01;;;;;;;2.78;1.77;;;;;;;;;;5054049;28;20061;-69
2023/07/14 01:01:28;;;;;;;2.17;1.60;;;;;;;;;;5037466;28;20052;-69
2023/07/14 01:03:55;;;;;;;2.00;1.55;;;;;;;;;;5036476;28;20028;-68
2023/07/14 01:06:26;;;;;;;3.38;1.90;;;;;;;;;;5055738;28;20017;-69
2023/07/14 01:09:08;;;;;;;3.60;1.80;;;;;;;;;;5053830;28;20557;-69
2023/07/14 01:11:44;;;;;;;3.67;1.70;;;;;;;;;;5037766;28;20036;-69
2023/07/14 01:14:13;;;;;;;1.95;1.58;;;;;;;;;;5054998;28;20478;-69
2023/07/14 01:16:40;;;;;;;6.78;2.15;;;;;;;;;;5054189;28;20489;-69
2023/07/14 01:19:14;;;;;;;3.58;2.00;;;;;;;;;;5036596;28;20021;-69
2023/07/14 01:21:40;;;;;;;3.70;1.95;;;;;;;;;;5037274;28;20027;-69
2023/07/14 01:24:23;;;;;;;2.70;1.83;;;;;;;;;;5037149;28;20470;-69
2023/07/14 01:27:05;;;;;;;3.53;1.63;;;;;;;;;;5036621;28;20025;-69
2023/07/14 01:29:31;;;;;;;2.03;1.67;;;;;;;;;;5055295;28;20386;-69
2023/07/14 01:31:57;;;;;;;2.47;1.90;;;;;;;;;;5037010;28;20025;-69
2023/07/14 01:34:23;;;;;;;2.22;1.80;;;;;;;;;;5054100;28;20028;-69
2023/07/14 01:36:48;;;;;;;3.85;2.03;;;;;;;;;;5054672;28;20116;-69
2023/07/14 01:39:14;;;;;;;1.65;1.50;;;;;;;;;;5036323;28;20099;-69
2023/07/14 01:41:39;;;;;;;3.95;1.80;;;;;;;;;;5036781;28;20392;-69
2023/07/14 01:44:06;;;;;;;2.60;1.70;;;;;;;;;;5037212;28;20017;-69
2023/07/14 01:46:31;;;;;;;2.33;2.05;;;;;;;;;;5053738;28;20029;-69
2023/07/14 01:49:01;;;;;;;3.40;1.70;;;;;;;;;;5053458;28;20413;-69
2023/07/14 01:51:35;;;;;;;2.20;1.75;;;;;;;;;;5051284;28;20079;-69
2023/07/14 01:54:40;;;;;;;4.70;2.30;;;;;;;;;;5053310;28;20529;-69
2023/07/14 01:57:12;;;;;;;2.72;2.08;;;;;;;;;;5032692;28;20110;-69
2023/07/14 01:59:40;;;;;;;6.45;2.17;;;;;;;;;;5042900;23;20442;-77
2023/07/14 02:02:11;;;;;;;3.72;2.10;;;;;;;;;;4987920;28;20022;-77
2023/07/14 02:04:37;;;;;;;3.17;1.95;;;;;;;;;;5019181;28;20413;-77
2023/07/14 02:07:03;;;;;;;2.47;1.95;;;;;;;;;;5038038;28;20385;-78
2023/07/14 02:09:29;;;;;;;3.33;2.13;;;;;;;;;;5034425;28;20025;-77
2023/07/14 02:11:57;;;;;;;6.70;2.33;;;;;;;;;;5017834;28;20082;-77
2023/07/14 02:14:24;;;;;;;2.47;2.28;;;;;;;;;;5017922;28;20064;-77
2023/07/14 02:16:50;;;;;;;3.35;2.20;;;;;;;;;;5016343;28;20030;-77
2023/07/14 02:19:19;;;;;;;4.55;2.95;;;;;;;;;;5017387;28;20022;-77
2023/07/14 02:21:45;;;;;;;3.45;2.20;;;;;;;;;;5013302;28;20026;-77
2023/07/14 02:24:16;;;;;;;3.20;2.03;;;;;;;;;;4997403;28;20021;-77
2023/07/14 02:26:43;;;;;;;3.92;1.73;;;;;;;;;;4997554;28;20017;-77
2023/07/14 02:29:11;;;;;;;2.92;1.83;;;;;;;;;;5013501;28;20458;-75
2023/07/14 02:31:50;;;;;;;6.65;2.67;;;;;;;;;;4996419;28;20053;-75
2023/07/14 02:34:16;;;;;;;2.72;2.15;;;;;;;;;;4996336;28;20026;-75
2023/07/14 02:37:03;;;;;;;2.25;1.73;;;;;;;;;;5013835;28;20022;-75
2023/07/14 02:39:31;;;;;;;2.67;1.88;;;;;;;;;;4996141;28;20025;-74
2023/07/14 02:41:57;;;;;;;2.70;2.10;;;;;;;;;;5012004;28;20395;-75
2023/07/14 02:44:37;;;;;;;3.63;1.80;;;;;;;;;;5029468;28;20382;-75
2023/07/14 02:47:09;;;;;;;2.30;1.60;;;;;;;;;;5015566;28;20018;-75
2023/07/14 02:49:34;;;;;;;3.47;2.10;;;;;;;;;;4999163;28;20029;-75
2023/07/14 02:52:00;;;;;;;2.97;2.10;;;;;;;;;;5032853;28;20034;-75
2023/07/14 02:54:25;;;;;;;2.45;1.95;;;;;;;;;;5024309;28;20025;-75
2023/07/14 02:56:52;;;;;;;3.00;2.03;;;;;;;;;;5013702;28;20483;-74
2023/07/14 02:59:18;;;;;;;3.25;2.00;;;;;;;;;;4995840;28;20032;-75
2023/07/14 03:01:43;;;;;;;3.22;1.58;;;;;;;;;;4996219;28;20084;-75
2023/07/14 03:04:09;;;;;;;2.33;1.77;;;;;;;;;;5011761;28;20021;-75
2023/07/14 03:06:34;;;;;;;2.30;1.75;;;;;;;;;;5012613;28;20037;-74
2023/07/14 03:08:59;;;;;;;4.15;1.83;;;;;;;;;;5012172;28;20033;-74
2023/07/14 03:11:25;;;;;;;2.33;1.77;;;;;;;;;;5011642;28;20026;-74
2023/07/14 03:13:51;;;;;;;3.22;1.77;;;;;;;;;;5012128;28;20510;-74
2023/07/14 03:16:16;;;;;;;2.75;1.90;;;;;;;;;;5028237;28;20026;-74
2023/07/14 03:18:42;;;;;;;2.55;1.80;;;;;;;;;;4995875;28;20025;-74
2023/07/14 03:21:08;;;;;;;3.15;2.05;;;;;;;;;;5013253;28;20026;-74
2023/07/14 03:23:34;;;;;;;2.78;2.20;;;;;;;;;;5028013;28;20026;-74
2023/07/14 03:26:05;;;;;;;2.25;1.80;;;;;;;;;;5013272;28;20501;-74
2023/07/14 03:28:31;;;;;;;3.70;1.80;;;;;;;;;;4995544;28;20061;-74
2023/07/14 03:30:56;;;;;;;3.42;2.05;;;;;;;;;;5028468;28;20026;-74
2023/07/14 03:33:22;;;;;;;2.45;1.77;;;;;;;;;;5012501;28;20080;-74
2023/07/14 03:35:47;;;;;;;2.38;1.65;;;;;;;;;;5013139;28;20022;-74
2023/07/14 03:38:13;;;;;;;3.40;2.25;;;;;;;;;;4995563;28;20030;-74
2023/07/14 03:40:38;;;;;;;2.88;1.95;;;;;;;;;;5013122;28;20483;-74
2023/07/14 03:43:04;;;;;;;2.80;2.28;;;;;;;;;;5011158;28;20033;-74
2023/07/14 03:45:31;;;;;;;2.85;2.33;;;;;;;;;;5028238;28;20014;-74
2023/07/14 03:47:56;;;;;;;5.55;2.60;;;;;;;;;;5012879;28;20021;-74
2023/07/14 03:50:21;;;;;;;3.00;2.42;;;;;;;;;;5028189;28;20064;-75
2023/07/14 03:52:47;;;;;;;3.90;3.20;;;;;;;;;;5012673;28;20029;-74
2023/07/14 03:55:12;;;;;;;3.30;2.65;;;;;;;;;;5012968;28;20368;-74
2023/07/14 03:57:37;;;;;;;4.35;2.88;;;;;;;;;;5013264;28;20030;-74
2023/07/14 04:00:11;;;;;;;3.33;2.55;;;;;;;;;;5028039;28;20034;-74
2023/07/14 04:02:38;;;;;;;6.60;3.58;;;;;;;;;;4996519;28;20022;-74
2023/07/14 04:05:04;;;;;;;7.20;4.07;;;;;;;;;;4999247;28;20475;-74
2023/07/14 04:07:29;;;;;;;5.60;3.22;;;;;;;;;;4999064;28;20072;-74
2023/07/14 04:09:55;;;;;;;5.80;3.25;;;;;;;;;;5016516;28;20022;-74
2023/07/14 04:12:20;;;;;;;5.68;3.67;;;;;;;;;;5015944;28;20395;-74
2023/07/14 04:14:46;;;;;;;5.65;3.10;;;;;;;;;;5016612;28;20423;-74
2023/07/14 04:17:11;;;;;;;6.43;3.10;;;;;;;;;;5033043;28;20445;-74
2023/07/14 04:19:36;;;;;;;4.38;3.08;;;;;;;;;;5018828;28;20037;-74
2023/07/14 04:22:02;;;;;;;4.43;3.03;;;;;;;;;;5017983;28;20105;-74
2023/07/14 04:24:27;;;;;;;4.32;3.20;;;;;;;;;;5016221;28;20022;-74
2023/07/14 04:26:55;;;;;;;5.93;3.22;;;;;;;;;;4998192;28;20033;-74
2023/07/14 04:29:20;;;;;;;7.22;3.90;;;;;;;;;;5016164;28;20033;-74
2023/07/14 04:31:45;;;;;;;7.80;4.10;;;;;;;;;;5016129;28;20026;-74
2023/07/14 04:34:11;;;;;;;6.50;3.78;;;;;;;;;;5016107;28;20091;-74
2023/07/14 04:36:36;;;;;;;6.18;4.10;;;;;;;;;;5016060;28;20030;-74
2023/07/14 04:39:06;;;;;;;4.53;3.63;;;;;;;;;;5015482;28;20029;-74
2023/07/14 04:41:32;;;;;;;6.07;3.90;;;;;;;;;;4998467;28;20549;-74
2023/07/14 04:43:57;;;;;;;5.07;3.97;;;;;;;;;;4998341;28;20026;-74
2023/07/14 04:46:22;;;;;;;5.10;3.38;;;;;;;;;;4998300;28;20499;-74
2023/07/14 04:48:48;;;;;;;9.45;4.45;;;;;;;;;;4998107;28;20068;-74
2023/07/14 04:51:14;;;;;;;6.85;3.58;;;;;;;;;;4997103;28;20033;-74
2023/07/14 04:53:39;;;;;;;6.65;3.40;;;;;;;;;;5017504;28;20474;-74
2023/07/14 04:56:04;;;;;;;6.15;4.32;;;;;;;;;;5017820;28;20535;-74
2023/07/14 04:58:29;;;;;;;5.78;3.58;;;;;;;;;;5017507;28;20036;-74
2023/07/14 05:00:55;;;;;;;7.82;3.97;;;;;;;;;;5035377;28;20433;-74
2023/07/14 05:03:20;;;;;;;4.43;3.83;;;;;;;;;;5035404;28;20054;-75
2023/07/14 05:05:45;;;;;;;5.00;3.25;;;;;;;;;;5034665;28;20018;-75
2023/07/14 05:08:11;;;;;;;8.63;4.32;;;;;;;;;;5017403;28;20052;-74
2023/07/14 05:10:38;;;;;;;7.38;3.58;;;;;;;;;;5017637;28;20048;-74
2023/07/14 05:13:04;;;;;;;6.22;4.47;;;;;;;;;;5001069;28;20018;-74
2023/07/14 05:15:29;;;;;;;9.25;4.45;;;;;;;;;;5017143;28;20040;-74
2023/07/14 05:17:55;;;;;;;8.75;4.15;;;;;;;;;;5019221;28;20029;-75
2023/07/14 05:20:20;;;;;;;8.02;4.47;;;;;;;;;;4997066;28;20030;-74
2023/07/14 05:22:49;;;;;;;8.95;4.70;;;;;;;;;;4996584;28;20084;-74
2023/07/14 05:25:15;;;;;;;9.15;4.25;;;;;;;;;;4997983;28;20029;-75
2023/07/14 05:27:43;;;;;;;7.80;4.43;;;;;;;;;;4999671;28;20060;-74
2023/07/14 05:30:10;;;;;;;6.63;4.22;;;;;;;;;;4997822;28;20036;-74
2023/07/14 05:32:36;;;;;;;7.30;4.18;;;;;;;;;;4996909;28;20026;-74
2023/07/14 05:35:02;;;;;;;5.45;3.67;;;;;;;;;;4997747;28;20033;-74
2023/07/14 05:37:27;;;;;;;8.38;4.78;;;;;;;;;;5001894;28;20036;-76
2023/07/14 05:39:53;;;;;;;5.28;4.18;;;;;;;;;;5013526;28;20025;-76
2023/07/14 05:42:18;;;;;;;8.98;4.32;;;;;;;;;;4996867;28;20112;-77
2023/07/14 05:44:43;;;;;;;6.90;3.88;;;;;;;;;;4999500;28;20046;-77
2023/07/14 05:47:09;;;;;;;7.90;3.97;;;;;;;;;;5033449;28;20029;-77
2023/07/14 05:49:34;;;;;;;6.20;4.18;;;;;;;;;;5017078;28;20367;-77
2023/07/14 05:52:00;;;;;;;7.30;3.17;;;;;;;;;;5013774;28;20018;-77
2023/07/14 05:54:25;;;;;;;6.05;4.22;;;;;;;;;;4996487;28;20065;-77
2023/07/14 05:56:51;;;;;;;8.48;3.72;;;;;;;;;;5007795;28;20497;-77
2023/07/14 05:59:17;;;;;;;8.23;3.83;;;;;;;;;;5001949;28;20032;-77
2023/07/14 06:01:42;;;;;;;4.65;3.58;;;;;;;;;;5016073;28;20112;-77
2023/07/14 06:04:07;;;;;;;4.97;3.53;;;;;;;;;;5012800;28;20525;-77
2023/07/14 06:06:33;;;;;;;5.72;2.85;;;;;;;;;;4981451;28;20032;-77
2023/07/14 06:09:00;;;;;;;5.22;2.95;;;;;;;;;;4981792;28;20018;-77
2023/07/14 06:11:25;;;;;;;8.52;2.90;;;;;;;;;;5016604;28;20021;-77
2023/07/14 06:13:51;;;;;;;5.05;2.78;;;;;;;;;;5016611;28;20104;-77
2023/07/14 06:16:16;;;;;;;5.10;3.17;;;;;;;;;;5031495;28;20025;-77
2023/07/14 06:18:41;;;;;;;7.57;2.88;;;;;;;;;;5033819;28;20048;-77
2023/07/14 06:21:08;;;;;;;5.45;3.03;;;;;;;;;;5008152;28;20029;-78
2023/07/14 06:23:33;;;;;;;7.22;3.05;;;;;;;;;;5014543;28;20018;-77
2023/07/14 06:25:59;;;;;;;4.40;2.58;;;;;;;;;;5013498;28;20411;-77
2023/07/14 06:28:24;;;;;;;3.67;2.42;;;;;;;;;;4996645;28;20079;-77
2023/07/14 06:30:58;;;;;;;6.32;2.90;;;;;;;;;;4997071;28;20029;-77
2023/07/14 06:33:24;;;;;;;5.13;2.42;;;;;;;;;;4995788;28;20427;-78
2023/07/14 06:35:50;;;;;;;5.68;2.30;;;;;;;;;;5008555;28;20027;-78
2023/07/14 06:38:15;;;;;;;3.38;2.30;;;;;;;;;;5015924;28;20116;-77
2023/07/14 06:40:41;;;;;;;3.97;2.40;;;;;;;;;;4994213;28;20152;-77
2023/07/14 06:43:09;;;;;;;4.20;2.30;;;;;;;;;;4997392;28;20021;-77
2023/07/14 06:45:34;;;;;;;5.18;2.40;;;;;;;;;;5016856;28;20375;-77
2023/07/14 06:48:00;;;;;;;6.65;2.05;;;;;;;;;;5013253;28;20145;-78
2023/07/14 06:50:25;;;;;;;2.80;2.13;;;;;;;;;;5014219;28;20088;-78
2023/07/14 06:52:51;;;;;;;3.25;2.35;;;;;;;;;;4997722;28;20029;-78
2023/07/14 06:55:16;;;;;;;5.30;2.40;;;;;;;;;;4996518;28;20030;-78
2023/07/14 06:57:43;;;;;;;5.95;2.50;;;;;;;;;;5031393;28;20055;-78
2023/07/14 07:00:12;;;;;;;3.40;2.22;;;;;;;;;;5033517;28;20112;-78
2023/07/14 07:02:38;;;;;;;3.92;2.30;;;;;;;;;;4999835;28;20474;-79
2023/07/14 07:05:06;;;;;;;4.00;2.38;;;;;;;;;;5015534;28;20492;-77
2023/07/14 07:07:32;;;;;;;3.78;2.65;;;;;;;;;;5015049;28;20056;-76
2023/07/14 07:09:57;;;;;;;7.82;2.50;;;;;;;;;;5015295;28;20049;-77
2023/07/14 07:12:22;;;;;;;3.40;2.60;;;;;;;;;;5032777;28;20063;-76
2023/07/14 07:14:49;;;;;;;5.00;2.42;;;;;;;;;;5032811;28;20029;-77
2023/07/14 07:17:14;;;;;;;4.63;2.80;;;;;;;;;;5032612;28;20048;-77
2023/07/14 07:19:39;;;;;;;5.13;2.53;;;;;;;;;;5014142;28;20036;-76
2023/07/14 07:22:07;;;;;;;3.75;2.28;;;;;;;;;;5032931;28;20025;-77
2023/07/14 07:24:32;;;;;;;3.53;2.30;;;;;;;;;;5032681;28;20040;-76
2023/07/14 07:26:58;;;;;;;5.20;2.63;;;;;;;;;;4998665;28;20025;-77
2023/07/14 07:29:23;;;;;;;4.05;2.35;;;;;;;;;;5031988;28;20133;-76
2023/07/14 07:31:49;;;;;;;4.07;2.65;;;;;;;;;;5028607;28;20025;-76
2023/07/14 07:34:14;;;;;;;4.63;2.65;;;;;;;;;;5032555;28;20030;-76
2023/07/14 07:36:39;;;;;;;6.13;2.70;;;;;;;;;;5033064;28;20178;-76
2023/07/14 07:39:05;;;;;;;4.65;2.80;;;;;;;;;;5002577;28;20021;-76
2023/07/14 07:41:30;;;;;;;4.20;2.33;;;;;;;;;;5017310;28;20432;-76
2023/07/14 07:43:56;;;;;;;3.28;2.20;;;;;;;;;;5018562;28;20032;-76
2023/07/14 07:46:21;;;;;;;3.10;2.40;;;;;;;;;;5018594;28;20052;-77
2023/07/14 07:48:47;;;;;;;3.75;2.17;;;;;;;;;;5036987;28;20069;-77
2023/07/14 07:51:14;;;;;;;3.42;2.22;;;;;;;;;;5032468;28;20024;-77
2023/07/14 07:53:39;;;;;;;4.95;2.38;;;;;;;;;;5017300;28;20026;-78
2023/07/14 07:56:05;;;;;;;4.03;2.63;;;;;;;;;;4998781;28;20036;-77
2023/07/14 07:58:30;;;;;;;5.15;2.25;;;;;;;;;;4999508;28;20060;-77
2023/07/14 08:00:59;;;;;;;4.65;2.42;;;;;;;;;;5067509;23;20045;-70
2023/07/14 08:03:24;;;;;;;7.60;2.78;;;;;;;;;;5055344;28;20493;-71
2023/07/14 08:05:50;;;;;;;5.43;2.53;;;;;;;;;;5056491;28;20033;-71
2023/07/14 08:08:15;;;;;;;6.80;2.67;;;;;;;;;;5055567;28;20474;-71
2023/07/14 08:10:43;;;;;;;5.38;3.28;;;;;;;;;;5047666;28;20040;-71
2023/07/14 08:13:13;;;;;;;4.15;2.20;;;;;;;;;;5036116;28;20391;-73
2023/07/14 08:15:38;;;;;;;6.63;3.17;;;;;;;;;;5038011;28;20044;-71
2023/07/14 08:18:06;;;;;;;6.55;3.92;;;;;;;;;;5055727;28;20591;-72
2023/07/14 08:20:32;;;;;;;4.10;2.17;;;;;;;;;;5051614;28;20155;-71
2023/07/14 08:22:57;;;;;;;5.22;2.65;;;;;;;;;;5054812;28;20063;-71
2023/07/14 08:25:23;;;;;;;3.70;2.03;;;;;;;;;;5055639;28;20470;-73
2023/07/14 08:27:49;;;;;;;3.92;2.15;;;;;;;;;;5055419;28;20036;-73
2023/07/14 08:30:14;;;;;;;4.45;2.30;;;;;;;;;;5053878;28;20397;-74
2023/07/14 08:32:40;;;;;;;4.25;2.65;;;;;;;;;;5055718;28;20100;-74
2023/07/14 08:35:06;;;;;;;3.70;2.25;;;;;;;;;;5054475;28;20028;-74
2023/07/14 08:37:32;;;;;;;4.00;2.17;;;;;;;;;;5050346;28;20029;-73
2023/07/14 08:39:57;;;;;;;3.20;2.30;;;;;;;;;;5034558;28;20023;-72
2023/07/14 08:42:41;;;;;;;3.38;2.00;;;;;;;;;;5035455;28;20687;-71
2023/07/14 08:45:28;;;;;;;3.15;2.03;;;;;;;;;;5034659;28;20017;-75
2023/07/14 08:48:22;;;;;;;3.67;1.92;;;;;;;;;;5046446;28;20064;-75
2023/07/14 08:50:50;;;;;;;4.95;2.38;;;;;;;;;;5051775;28;20028;-74
2023/07/14 08:53:21;;;;;;;5.07;2.55;;;;;;;;;;5037411;28;20021;-72
2023/07/14 08:55:47;;;;;;;3.53;2.10;;;;;;;;;;5054155;28;20020;-73
2023/07/14 08:58:24;;;;;;;5.47;2.30;;;;;;;;;;5050521;28;20018;-72
2023/07/14 09:00:49;;;;;;;4.78;2.45;;;;;;;;;;5033712;28;20095;-72
2023/07/14 09:03:27;;;;;;;3.70;2.50;;;;;;;;;;5036074;28;20018;-72
2023/07/14 09:05:55;;;;;;;4.20;2.30;;;;;;;;;;5037131;28;20458;-73
2023/07/14 09:08:26;;;;;;;5.40;3.03;;;;;;;;;;5053707;28;20025;-71
2023/07/14 09:11:00;;;;;;;4.22;2.55;;;;;;;;;;5054033;28;20029;-72
2023/07/14 09:13:46;;;;;;;4.32;2.40;;;;;;;;;;5053412;28;20021;-71
2023/07/14 09:16:12;;;;;;;5.30;2.65;;;;;;;;;;5035607;28;20116;-73
2023/07/14 09:18:57;;;;;;;5.97;2.53;;;;;;;;;;5033717;28;20096;-74
2023/07/14 09:21:29;;;;;;;3.80;2.33;;;;;;;;;;5050255;28;20486;-74
2023/07/14 09:24:07;;;;;;;3.70;2.97;;;;;;;;;;5054553;28;20029;-74
2023/07/14 09:26:40;;;;;;;3.72;2.38;;;;;;;;;;5050450;28;20022;-74
2023/07/14 09:29:16;;;;;;;4.28;2.63;;;;;;;;;;5040744;28;20116;-74
2023/07/14 09:32:01;;;;;;;4.32;2.45;;;;;;;;;;5033203;28;20475;-74
2023/07/14 09:34:36;;;;;;;4.97;2.10;;;;;;;;;;5033582;28;20026;-74
2023/07/14 09:37:10;;;;;;;3.50;2.40;;;;;;;;;;5049365;28;20032;-74
2023/07/14 09:39:38;;;;;;;4.30;2.50;;;;;;;;;;5016002;28;20017;-74
2023/07/14 09:42:05;;;;;;;2.83;2.28;;;;;;;;;;5047190;28;20060;-74
2023/07/14 09:44:30;;;;;;;4.88;2.20;;;;;;;;;;5034409;28;20022;-74
2023/07/14 09:46:56;;;;;;;4.97;2.10;;;;;;;;;;5034950;28;20103;-75
2023/07/14 09:49:35;;;;;;;4.57;2.60;;;;;;;;;;5033272;28;20017;-74
2023/07/14 09:52:21;;;;;;;8.18;3.40;;;;;;;;;;5016353;28;20074;-74
2023/07/14 09:54:57;;;;;;;7.03;2.50;;;;;;;;;;5034102;28;20042;-74
2023/07/14 09:57:34;;;;;;;4.80;2.50;;;;;;;;;;5033497;28;20113;-75
2023/07/14 10:00:02;;;;;;;4.03;2.55;;;;;;;;;;5032883;28;20026;-74
2023/07/14 10:02:30;;;;;;;5.47;2.42;;;;;;;;;;5034319;28;20024;-74
2023/07/14 10:05:03;;;;;;;4.53;2.55;;;;;;;;;;5049082;28;20022;-74
2023/07/14 10:07:35;;;;;;;5.13;2.97;;;;;;;;;;5033115;28;20025;-73
2023/07/14 10:10:09;;;;;;;5.20;2.50;;;;;;;;;;5032940;28;20128;-72
2023/07/14 10:12:42;;;;;;;5.57;2.67;;;;;;;;;;5034370;28;20025;-75
2023/07/14 10:15:35;;;;;;;3.58;2.45;;;;;;;;;;5032433;28;20028;-75
2023/07/14 10:18:05;;;;;;;3.88;2.13;;;;;;;;;;5046881;28;20136;-75
2023/07/14 10:20:32;;;;;;;4.05;2.60;;;;;;;;;;5033881;28;20032;-74
2023/07/14 10:22:59;;;;;;;4.45;2.50;;;;;;;;;;5049344;28;20017;-75
2023/07/14 10:25:26;;;;;;;3.80;2.55;;;;;;;;;;5049551;28;20022;-74
2023/07/14 10:28:12;;;;;;;4.63;2.50;;;;;;;;;;5048713;28;20052;-74
2023/07/14 10:30:49;;;;;;;4.38;2.40;;;;;;;;;;5032576;28;20025;-74
2023/07/14 10:33:21;;;;;;;5.18;2.38;;;;;;;;;;5049153;28;20044;-74
2023/07/14 10:35:50;;;;;;;6.45;2.40;;;;;;;;;;5032739;28;20032;-75
2023/07/14 10:38:20;;;;;;;4.03;2.13;;;;;;;;;;5031946;28;20033;-74
2023/07/14 10:40:51;;;;;;;4.22;2.10;;;;;;;;;;5032364;28;20026;-75
2023/07/14 10:43:21;;;;;;;3.60;2.53;;;;;;;;;;5032459;28;20021;-73
2023/07/14 10:45:50;;;;;;;3.97;2.30;;;;;;;;;;5048947;28;20033;-74
2023/07/14 10:48:36;;;;;;;3.70;1.80;;;;;;;;;;5031759;28;20022;-74
2023/07/14 10:51:08;;;;;;;4.70;2.05;;;;;;;;;;5032308;28;20386;-75
2023/07/14 10:53:38;;;;;;;5.47;3.17;;;;;;;;;;5049142;28;20026;-73
2023/07/14 10:56:18;;;;;;;3.58;1.98;;;;;;;;;;5032367;28;20033;-72
2023/07/14 10:58:52;;;;;;;2.88;1.95;;;;;;;;;;5032183;28;20104;-73
2023/07/14 11:01:33;;;;;;;5.40;2.55;;;;;;;;;;5031955;28;20490;-72
2023/07/14 11:04:06;;;;;;;3.85;2.03;;;;;;;;;;5031915;28;20360;-72
2023/07/14 11:06:33;;;;;;;5.25;2.20;;;;;;;;;;5049041;28;20079;-72
2023/07/14 11:08:58;;;;;;;3.90;2.10;;;;;;;;;;5032054;28;20486;-73
2023/07/14 11:11:50;;;;;;;3.28;1.80;;;;;;;;;;5035730;28;20152;-73
2023/07/14 11:14:37;;;;;;;3.88;1.85;;;;;;;;;;5030602;28;20040;-71
2023/07/14 11:17:08;;;;;;;5.88;1.85;;;;;;;;;;5042509;28;20521;-72
2023/07/14 11:20:00;;;;;;;3.97;2.17;;;;;;;;;;5045282;28;20033;-74
2023/07/14 11:22:46;;;;;;;3.08;1.75;;;;;;;;;;5051725;28;20032;-74
2023/07/14 11:25:33;;;;;;;3.08;2.03;;;;;;;;;;5051744;28;20027;-74
2023/07/14 11:28:35;;;;;;;4.43;2.03;;;;;;;;;;5052474;28;20047;-73
2023/07/14 11:31:03;;;;;;;5.50;2.20;;;;;;;;;;5052826;28;20025;-73
2023/07/14 11:33:42;;;;;;;4.32;2.03;;;;;;;;;;5051526;28;20024;-72
2023/07/14 11:36:11;;;;;;;3.70;2.03;;;;;;;;;;5053159;28;20040;-73
2023/07/14 11:39:03;;;;;;;3.63;2.10;;;;;;;;;;5044505;28;20036;-72
2023/07/14 11:41:30;;;;;;;4.70;2.00;;;;;;;;;;5047711;28;20025;-73
2023/07/14 11:43:55;;;;;;;2.72;1.60;;;;;;;;;;5051452;28;20359;-73
2023/07/14 11:46:22;;;;;;;3.70;1.80;;;;;;;;;;5051063;28;20024;-73
2023/07/14 11:48:53;;;;;;;2.92;1.63;;;;;;;;;;5051370;28;20028;-72
2023/07/14 11:51:21;;;;;;;4.15;1.73;;;;;;;;;;5052129;28;20017;-73
2023/07/14 11:54:26;;;;;;;3.53;1.67;;;;;;;;;;5051829;28;20493;-73
2023/07/14 11:57:03;;;;;;;3.95;2.13;;;;;;;;;;5031017;28;20060;-72
2023/07/14 11:59:30;;;;;;;2.78;1.83;;;;;;;;;;5030775;28;20021;-72
2023/07/14 12:02:02;;;;;;;2.40;1.63;;;;;;;;;;5032751;28;20048;-73
2023/07/14 12:04:33;;;;;;;2.80;1.60;;;;;;;;;;5027593;28;20064;-73
2023/07/14 12:07:19;;;;;;;3.38;1.92;;;;;;;;;;5031512;28;20029;-73
2023/07/14 12:10:03;;;;;;;2.10;1.40;;;;;;;;;;5031372;28;20406;-73
2023/07/14 12:12:31;;;;;;;4.15;1.60;;;;;;;;;;5031157;28;20033;-71
2023/07/14 12:14:56;;;;;;;3.10;1.75;;;;;;;;;;5050151;28;20021;-73
2023/07/14 12:17:37;;;;;;;4.15;1.90;;;;;;;;;;5051002;28;20032;-72
2023/07/14 12:20:15;;;;;;;3.00;1.88;;;;;;;;;;5052319;28;20021;-72
2023/07/14 12:23:09;;;;;;;3.88;1.75;;;;;;;;;;5033540;28;20067;-72
2023/07/14 12:25:40;;;;;;;2.67;1.90;;;;;;;;;;5054875;28;20033;-72
2023/07/14 12:28:14;;;;;;;5.18;2.17;;;;;;;;;;5054326;28;20036;-73
2023/07/14 12:30:46;;;;;;;3.03;1.80;;;;;;;;;;5048820;28;20029;-72
2023/07/14 12:33:13;;;;;;;5.10;1.88;;;;;;;;;;5053504;28;20114;-71
2023/07/14 12:35:39;;;;;;;4.38;1.92;;;;;;;;;;5034590;28;20547;-72
2023/07/14 12:38:08;;;;;;;3.75;2.13;;;;;;;;;;5035925;28;20112;-72
2023/07/14 12:40:34;;;;;;;4.25;2.03;;;;;;;;;;5035706;28;20044;-71
2023/07/14 12:43:00;;;;;;;3.67;2.10;;;;;;;;;;5049953;28;20375;-71
2023/07/14 12:45:25;;;;;;;4.80;2.20;;;;;;;;;;5034538;28;20025;-71
2023/07/14 12:47:53;;;;;;;3.72;2.40;;;;;;;;;;5050243;28;20025;-71
2023/07/14 12:50:21;;;;;;;4.47;2.15;;;;;;;;;;5055481;28;20027;-71
2023/07/14 12:52:50;;;;;;;6.28;2.47;;;;;;;;;;5053765;28;20028;-71
2023/07/14 12:55:19;;;;;;;3.45;2.45;;;;;;;;;;5050801;28;20091;-71
2023/07/14 12:57:46;;;;;;;4.55;2.40;;;;;;;;;;5034340;28;20028;-72
2023/07/14 13:00:36;;;;;;;3.78;2.30;;;;;;;;;;5050180;28;20079;-71
2023/07/14 13:03:02;;;;;;;5.18;2.72;;;;;;;;;;5034309;28;20018;-71
2023/07/14 13:05:36;;;;;;;3.08;2.42;;;;;;;;;;5036795;28;20079;-72
2023/07/14 13:08:04;;;;;;;3.80;2.53;;;;;;;;;;5034452;28;20026;-71
2023/07/14 13:10:40;;;;;;;4.78;2.35;;;;;;;;;;5050673;28;20556;-72
2023/07/14 13:13:08;;;;;;;5.57;2.53;;;;;;;;;;5041135;28;20509;-71
2023/07/14 13:15:34;;;;;;;5.30;2.85;;;;;;;;;;5052852;28;20029;-71
2023/07/14 13:18:18;;;;;;;3.70;2.55;;;;;;;;;;5053116;28;20044;-72
2023/07/14 13:20:43;;;;;;;5.18;2.83;;;;;;;;;;5053823;28;20051;-72
2023/07/14 13:23:09;;;;;;;3.53;2.35;;;;;;;;;;5054969;28;20024;-72
2023/07/14 13:25:41;;;;;;;5.85;2.85;;;;;;;;;;5050064;28;20032;-70
2023/07/14 13:28:26;;;;;;;6.43;2.95;;;;;;;;;;5040931;28;20017;-71
2023/07/14 13:30:52;;;;;;;4.90;2.90;;;;;;;;;;5053284;28;20025;-70
2023/07/14 13:33:21;;;;;;;5.35;3.22;;;;;;;;;;5048752;28;20034;-72
2023/07/14 13:35:55;;;;;;;4.95;2.95;;;;;;;;;;5047960;28;20416;-71
2023/07/14 13:38:21;;;;;;;5.07;2.63;;;;;;;;;;5047663;28;20025;-72
2023/07/14 13:40:51;;;;;;;4.63;2.60;;;;;;;;;;5042172;28;20048;-72
2023/07/14 13:46:26;;;;;;;4.40;2.45;;;;;;;;;;5570569;23;20071;-75
2023/07/14 13:48:54;;;;;;;5.32;2.70;;;;;;;;;;5031496;28;20035;-75
2023/07/14 13:51:25;;;;;;;4.40;3.15;;;;;;;;;;5042349;28;20184;-75
2023/07/14 13:53:51;;;;;;;4.90;3.38;;;;;;;;;;5006479;28;20057;-75
2023/07/14 13:56:19;;;;;;;7.25;3.20;;;;;;;;;;5020311;28;20442;-75
2023/07/14 13:58:45;;;;;;;4.53;3.00;;;;;;;;;;5043968;23;20464;-69
2023/07/14 14:01:16;;;;;;;6.18;2.60;;;;;;;;;;5021665;28;20466;-69
2023/07/14 14:03:42;;;;;;;4.50;2.60;;;;;;;;;;5010276;28;20026;-69
2023/07/14 14:06:11;;;;;;;5.25;3.00;;;;;;;;;;5024153;28;20547;-69
2023/07/14 14:08:37;;;;;;;4.68;2.90;;;;;;;;;;5017861;28;20432;-69
2023/07/14 14:11:02;;;;;;;4.28;2.60;;;;;;;;;;5020886;28;20082;-69
2023/07/14 14:13:28;;;;;;;6.70;3.95;;;;;;;;;;5019569;28;20021;-69
2023/07/14 14:15:54;;;;;;;6.72;3.13;;;;;;;;;;5015499;28;20022;-68
2023/07/14 14:18:22;;;;;;;5.82;3.03;;;;;;;;;;5019166;28;20029;-69
2023/07/14 14:20:48;;;;;;;6.07;2.95;;;;;;;;;;5012466;28;20355;-68
2023/07/14 14:23:17;;;;;;;5.38;2.90;;;;;;;;;;5016127;28;20021;-68
2023/07/14 14:25:42;;;;;;;4.97;3.03;;;;;;;;;;5015532;28;20021;-69
2023/07/14 14:28:08;;;;;;;7.53;2.75;;;;;;;;;;5033665;28;20389;-69
2023/07/14 14:30:45;;;;;;;6.10;2.72;;;;;;;;;;5036228;28;20021;-69
2023/07/14 14:33:14;;;;;;;4.68;2.97;;;;;;;;;;5024202;28;20038;-68
2023/07/14 14:35:41;;;;;;;4.80;2.95;;;;;;;;;;5015580;28;20033;-68
2023/07/14 14:38:10;;;;;;;3.35;2.78;;;;;;;;;;5015544;28;20026;-69
2023/07/14 14:40:36;;;;;;;6.03;3.53;;;;;;;;;;5033038;28;20027;-69
2023/07/14 14:43:11;;;;;;;3.95;3.08;;;;;;;;;;5033377;28;20021;-68
2023/07/14 14:45:37;;;;;;;5.88;3.10;;;;;;;;;;5015937;28;20547;-69
2023/07/14 14:48:03;;;;;;;5.03;2.65;;;;;;;;;;5014434;28;20043;-69
2023/07/14 14:50:28;;;;;;;4.97;2.67;;;;;;;;;;5015247;28;20021;-69
2023/07/14 14:52:53;;;;;;;4.97;2.92;;;;;;;;;;5033059;28;20136;-69
2023/07/14 14:55:20;;;;;;;6.00;3.00;;;;;;;;;;5033396;28;20025;-69
2023/07/14 14:57:52;;;;;;;3.42;2.50;;;;;;;;;;5015513;28;20026;-69
2023/07/14 15:00:29;;;;;;;5.63;2.50;;;;;;;;;;5022830;28;20372;-69